« Back
NWS Peachtree City, Ga » Text Product » AHN Terminal Aerodrome Forecast


Printer-friendly Version
Current Version              Previous Versions:   1  2  3  4  5  6  7  8  9  

Terminal Aerodrome Forecast

331
FTAK31 PAJN 230500
TAFAHN
TAF
PAHN 230535Z 2306/2406 VRB06KT P6SM BKN100
     FM231800 12006KT P6SM SCT050 BKN100
      AMD LTD TO CLD VIS AND WIND=



USA.gov is the U.S. government's official web portal to all federal, state and local government web resources and services.